Main page
METAR-TAF:

METAR-TAF

Airports :

Falconara Airport

Ancona, Italy

latitude: 43-37N, longitude: 013-22E, elevation: 12 m

Current weather observation

The report was made 43 minutes ago, at 10:50 UTC
Wind 9 kt from the West/Northwest
Temperature 3°C
Humidity 100%
Pressure 1006 hPa
Visibility: 4000 m
Few clouds at a height of 700 ft
Scattered clouds at a height of 1000 ft
Broken clouds at a height of 1500 ft
light rain, mist

METAR: LIPY 221050Z 30009KT 4000 -RA BR FEW007 SCT010 BKN015 03/03 Q1006

Time: 12:33 (11:33 UTC)

Forecast

The report was made 6 hours and 33 minutes ago, at 05:00 UTC
Forecast valid from 22 at 06 UTC to 23 at 06 UTC
Wind 10 kt from the North/Northwest
Visibility: 6000 m
Broken clouds at a height of 2000 ft
Temporary
from 22 at 06 UTC to 22 at 20 UTC
Visibility: 4000 m
rain
Becoming
from 22 at 20 UTC to 22 at 22 UTC
Wind 8 kt from the West

TAF: LIPY 220500Z 2206/2306 34010KT 6000 BKN020 TEMPO 2206/2220 4000 RA BECMG 2220/2222 28008KT

Weather observations and forecasts of more than 4000 airports (METAR and TAF reports).

The available stations are represented by yellow and red dots on the map.

Hover mouse over dot to see the name of the station.

Then click to see weather observations and forecasts.

To change the map : click on the green buttons with a black cross to zoom in, on the green button with a dash to zoom out, or on the green arrows for adjacent maps.


METAR-TAF: